createdAt,value
2019-05-13T00:00:44.747Z,4.77
2019-05-13T00:01:44.176Z,4.88
2019-05-13T00:02:44.201Z,4.88
2019-05-13T00:03:44.119Z,4.95
2019-05-13T00:04:44.281Z,4.84
2019-05-13T00:05:44.590Z,4.93
2019-05-13T00:06:53.424Z,4.88
2019-05-13T00:07:44.103Z,4.91
2019-05-13T00:08:44.092Z,4.88
2019-05-13T00:09:44.245Z,4.83
2019-05-13T00:10:43.691Z,4.76
2019-05-13T00:11:43.810Z,4.77
2019-05-13T00:12:44.642Z,4.73
2019-05-13T00:13:44.397Z,4.79
2019-05-13T00:14:43.472Z,4.74
2019-05-13T00:15:44.239Z,4.76
2019-05-13T00:16:44.866Z,4.79
2019-05-13T00:17:44.607Z,4.73
2019-05-13T00:18:44.444Z,4.77
2019-05-13T00:19:44.227Z,4.84
2019-05-13T00:20:44.288Z,4.77
2019-05-13T00:21:44.474Z,4.88
2019-05-13T00:22:44.609Z,4.74
2019-05-13T00:23:44.193Z,4.76
2019-05-13T00:24:44.288Z,4.68
2019-05-13T00:25:44.212Z,4.68
2019-05-13T00:26:43.827Z,4.72
2019-05-13T00:27:44.308Z,4.64
2019-05-13T00:28:44.207Z,4.69
2019-05-13T00:29:44.255Z,4.72
2019-05-13T00:30:44.259Z,4.69
2019-05-13T00:31:43.718Z,4.69
2019-05-13T00:32:41.554Z,4.69
2019-05-13T00:33:41.469Z,4.59
2019-05-13T00:34:41.385Z,4.62
2019-05-13T00:35:41.399Z,4.64
2019-05-13T00:36:41.214Z,4.62
2019-05-13T00:37:41.129Z,4.55
2019-05-13T00:38:41.044Z,4.55
2019-05-13T00:39:40.959Z,4.50
2019-05-13T00:40:40.875Z,4.48
2019-05-13T00:41:40.790Z,4.55
2019-05-13T00:42:40.705Z,4.58
2019-05-13T00:43:40.622Z,4.48
2019-05-13T00:44:40.536Z,4.48
2019-05-13T00:45:40.451Z,4.55
2019-05-13T00:46:40.368Z,4.52
2019-05-13T00:47:40.284Z,4.44
2019-05-13T00:48:40.197Z,4.43
2019-05-13T00:49:40.113Z,4.43
2019-05-13T00:50:40.027Z,4.46
2019-05-13T00:51:39.942Z,4.28
2019-05-13T00:52:39.867Z,4.29
2019-05-13T00:53:39.773Z,4.29
2019-05-13T00:54:39.689Z,4.20
2019-05-13T00:55:39.602Z,4.28
2019-05-13T00:56:39.523Z,4.28
2019-05-13T00:57:39.438Z,4.29
2019-05-13T00:58:39.351Z,4.26
2019-05-13T00:59:39.265Z,4.20
2019-05-13T01:00:39.180Z,4.11
2019-05-13T01:01:39.197Z,4.16
2019-05-13T01:02:39.013Z,4.15
2019-05-13T01:03:38.926Z,4.20
2019-05-13T01:04:38.840Z,4.15
2019-05-13T01:05:38.757Z,4.20
2019-05-13T01:06:38.671Z,4.16
2019-05-13T01:07:38.585Z,4.05
2019-05-13T01:08:38.501Z,4.12
2019-05-13T01:09:38.415Z,4.18
2019-05-13T01:10:38.330Z,4.22
2019-05-13T01:11:38.245Z,4.07
2019-05-13T01:12:38.160Z,4.08
2019-05-13T01:13:38.074Z,4.07
2019-05-13T01:14:37.991Z,4.08
2019-05-13T01:15:37.904Z,4.12
2019-05-13T01:16:37.820Z,4.15
2019-05-13T01:17:37.836Z,4.01
2019-05-13T01:18:37.651Z,4.08
2019-05-13T01:19:37.565Z,4.02
2019-05-13T01:20:37.479Z,4.12
2019-05-13T01:21:37.394Z,4.00
2019-05-13T01:22:37.309Z,4.02
2019-05-13T01:23:37.224Z,3.94
2019-05-13T01:24:37.139Z,3.94
2019-05-13T01:25:37.054Z,3.89
2019-05-13T01:26:36.968Z,3.92
2019-05-13T01:27:36.882Z,3.98
2019-05-13T01:28:36.898Z,3.97
2019-05-13T01:29:36.712Z,3.94
2019-05-13T01:30:36.627Z,3.94
2019-05-13T01:31:36.542Z,3.92
2019-05-13T01:32:36.463Z,3.87
2019-05-13T01:33:36.370Z,3.98
2019-05-13T01:34:36.287Z,3.89
2019-05-13T01:35:36.199Z,3.89
2019-05-13T01:36:36.117Z,3.87
2019-05-13T01:37:42.199Z,3.86
2019-05-13T01:38:35.947Z,3.83
2019-05-13T01:39:35.860Z,3.94
2019-05-13T01:40:35.804Z,3.75
2019-05-13T01:41:35.689Z,3.83
2019-05-13T01:42:35.604Z,3.69
2019-05-13T01:43:35.517Z,3.69
2019-05-13T01:44:35.457Z,3.82
2019-05-13T01:45:35.347Z,3.74
2019-05-13T01:46:35.262Z,3.71
2019-05-13T01:47:35.175Z,3.75
2019-05-13T01:48:35.190Z,3.71
2019-05-13T01:49:35.004Z,3.72
2019-05-13T01:50:34.920Z,3.79
2019-05-13T01:51:34.838Z,3.68
2019-05-13T01:52:34.747Z,3.65
2019-05-13T01:53:34.662Z,3.65
2019-05-13T01:54:34.700Z,3.74
2019-05-13T01:55:34.492Z,3.68
2019-05-13T01:56:34.413Z,3.74
2019-05-13T01:57:34.374Z,3.72
2019-05-13T01:58:34.238Z,3.74
2019-05-13T01:59:34.875Z,3.69
2019-05-13T02:00:35.395Z,3.82
2019-05-13T02:01:33.979Z,3.84
2019-05-13T02:02:33.893Z,3.82
2019-05-13T02:03:33.979Z,3.84
2019-05-13T02:04:33.739Z,3.80
2019-05-13T02:05:34.173Z,3.69
2019-05-13T02:06:33.818Z,3.84
2019-05-13T02:07:33.721Z,3.74
2019-05-13T02:08:33.784Z,3.71
2019-05-13T02:09:33.860Z,3.68
2019-05-13T02:10:33.781Z,3.64
2019-05-13T02:11:34.136Z,3.57
2019-05-13T02:12:34.011Z,3.61
2019-05-13T02:13:34.364Z,3.62
2019-05-13T02:14:34.096Z,3.61
2019-05-13T02:15:33.765Z,3.56
2019-05-13T02:16:33.843Z,3.61
2019-05-13T02:17:33.736Z,3.59
2019-05-13T02:18:34.115Z,3.71
2019-05-13T02:19:33.626Z,3.56
2019-05-13T02:20:33.537Z,3.54
2019-05-13T02:21:33.608Z,3.57
2019-05-13T02:22:33.623Z,3.57
2019-05-13T02:23:34.017Z,3.50
2019-05-13T02:24:34.103Z,3.46
2019-05-13T02:25:34.082Z,3.53
2019-05-13T02:26:31.839Z,3.62
2019-05-13T02:27:31.853Z,3.53
2019-05-13T02:28:33.393Z,3.39
2019-05-13T02:29:31.583Z,3.37
2019-05-13T02:30:34.678Z,3.39
2019-05-13T02:31:41.310Z,3.39
2019-05-13T02:32:32.929Z,3.35
2019-05-13T02:33:34.036Z,3.32
2019-05-13T02:34:32.131Z,3.35
2019-05-13T02:35:32.479Z,3.39
2019-05-13T02:36:33.057Z,3.41
2019-05-13T02:37:34.151Z,3.44
2019-05-13T02:38:35.153Z,3.51
2019-05-13T02:39:32.854Z,3.51
2019-05-13T02:40:32.674Z,3.48
2019-05-13T02:41:33.883Z,3.50
2019-05-13T02:42:32.799Z,3.37
2019-05-13T02:43:33.279Z,3.46
2019-05-13T02:44:33.278Z,3.34
2019-05-13T02:45:33.048Z,3.39
2019-05-13T02:46:33.397Z,3.28
2019-05-13T02:47:32.861Z,3.34
2019-05-13T02:48:32.474Z,3.31
2019-05-13T02:49:32.386Z,3.32
2019-05-13T02:50:33.521Z,3.32
2019-05-13T02:51:32.661Z,3.29
2019-05-13T02:52:33.195Z,3.24
2019-05-13T02:53:29.525Z,3.24
2019-05-13T02:54:29.465Z,3.22
2019-05-13T02:55:32.677Z,3.25
2019-05-13T02:56:29.268Z,3.17
2019-05-13T02:57:32.254Z,3.11
2019-05-13T02:58:29.101Z,3.14
2019-05-13T02:59:29.016Z,3.16
2019-05-13T03:00:28.928Z,3.24
2019-05-13T03:01:28.839Z,3.14
2019-05-13T03:02:28.761Z,3.17
2019-05-13T03:03:28.767Z,3.13
2019-05-13T03:04:28.580Z,3.13
2019-05-13T03:05:28.499Z,3.13
2019-05-13T03:06:28.410Z,3.13
2019-05-13T03:07:28.323Z,3.11
2019-05-13T03:08:46.201Z,3.11
2019-05-13T03:09:28.152Z,3.17
2019-05-13T03:10:28.066Z,3.19
2019-05-13T03:11:27.980Z,3.13
2019-05-13T03:12:27.902Z,3.13
2019-05-13T03:13:27.907Z,3.14
2019-05-13T03:14:27.721Z,3.14
2019-05-13T03:15:27.635Z,3.10
2019-05-13T03:16:27.550Z,3.13
2019-05-13T03:17:27.466Z,3.04
2019-05-13T03:18:27.486Z,3.04
2019-05-13T03:19:27.292Z,3.06
2019-05-13T03:20:27.207Z,3.04
2019-05-13T03:21:27.121Z,3.07
2019-05-13T03:22:27.052Z,2.98
2019-05-13T03:23:26.947Z,2.89
2019-05-13T03:24:26.863Z,2.93
2019-05-13T03:25:26.777Z,2.93
2019-05-13T03:26:26.698Z,3.07
2019-05-13T03:27:26.607Z,2.99
2019-05-13T03:28:26.619Z,3.01
2019-05-13T03:29:26.433Z,3.03
2019-05-13T03:30:26.496Z,3.07
2019-05-13T03:31:27.069Z,2.99
2019-05-13T03:32:34.978Z,3.07
2019-05-13T03:33:28.347Z,2.96
2019-05-13T03:34:27.498Z,2.95
2019-05-13T03:35:27.789Z,2.96
2019-05-13T03:36:26.750Z,3.01
2019-05-13T03:37:27.197Z,3.03
2019-05-13T03:38:25.658Z,3.04
2019-05-13T03:39:25.570Z,3.01
2019-05-13T03:40:25.486Z,3.03
2019-05-13T03:41:25.403Z,3.03
2019-05-13T03:42:25.315Z,3.03
2019-05-13T03:43:25.226Z,2.92
2019-05-13T03:44:25.241Z,2.92
2019-05-13T03:45:25.054Z,2.86
2019-05-13T03:46:24.999Z,2.86
2019-05-13T03:47:24.891Z,2.78
2019-05-13T03:48:24.797Z,2.78
2019-05-13T03:49:24.710Z,2.81
2019-05-13T03:50:24.668Z,2.80
2019-05-13T03:51:24.537Z,2.91
2019-05-13T03:52:24.453Z,2.86
2019-05-13T03:53:24.366Z,2.77
2019-05-13T03:54:24.384Z,2.84
2019-05-13T03:55:24.193Z,2.84
2019-05-13T03:56:24.293Z,2.84
2019-05-13T03:57:24.027Z,2.74
2019-05-13T03:58:24.221Z,2.80
2019-05-13T03:59:23.848Z,2.77
2019-05-13T04:00:23.913Z,2.73
2019-05-13T04:01:23.700Z,2.67
2019-05-13T04:02:23.598Z,2.73
2019-05-13T04:03:23.503Z,2.75
2019-05-13T04:04:23.766Z,2.67
2019-05-13T04:05:23.762Z,2.70
2019-05-13T04:06:23.886Z,2.73
2019-05-13T04:07:23.928Z,2.68
2019-05-13T04:08:23.248Z,2.80
2019-05-13T04:09:30.960Z,2.80
2019-05-13T04:10:23.456Z,2.81
2019-05-13T04:11:22.924Z,2.73
2019-05-13T04:12:24.366Z,2.80
2019-05-13T04:13:23.509Z,2.78
2019-05-13T04:14:23.327Z,2.84
2019-05-13T04:15:23.687Z,2.80
2019-05-13T04:16:23.780Z,2.88
2019-05-13T04:17:24.262Z,2.85
2019-05-13T04:18:23.505Z,2.88
2019-05-13T04:19:23.188Z,2.89
2019-05-13T04:20:23.195Z,2.91
2019-05-13T04:21:22.942Z,2.99
2019-05-13T04:22:23.013Z,3.04
2019-05-13T04:23:23.325Z,3.01
2019-05-13T04:24:22.958Z,2.98
2019-05-13T04:25:23.220Z,2.98
2019-05-13T04:26:23.668Z,3.07
2019-05-13T04:27:23.281Z,3.11
2019-05-13T04:28:22.278Z,3.14
2019-05-13T04:29:23.356Z,3.14
2019-05-13T04:30:22.338Z,3.13
2019-05-13T04:31:22.761Z,3.10
2019-05-13T04:32:23.010Z,3.13
2019-05-13T04:33:22.978Z,3.13
2019-05-13T04:34:22.943Z,3.17
2019-05-13T04:35:23.459Z,3.13
2019-05-13T04:36:23.442Z,3.22
2019-05-13T04:37:22.274Z,3.17
2019-05-13T04:38:22.657Z,3.16
2019-05-13T04:39:38.998Z,3.19
2019-05-13T04:40:23.158Z,3.21
2019-05-13T04:41:22.975Z,3.24
2019-05-13T04:42:23.185Z,3.16
2019-05-13T04:43:23.187Z,3.16
2019-05-13T04:44:23.647Z,3.22
2019-05-13T04:45:23.482Z,3.14
2019-05-13T04:46:22.780Z,3.19
2019-05-13T04:47:22.677Z,3.19
2019-05-13T04:48:22.594Z,3.27
2019-05-13T04:49:22.967Z,3.21
2019-05-13T04:50:22.514Z,3.22
2019-05-13T04:51:22.349Z,3.17
2019-05-13T04:52:22.070Z,3.16
2019-05-13T04:53:22.382Z,3.28
2019-05-13T04:54:22.279Z,3.19
2019-05-13T04:55:22.433Z,3.14
2019-05-13T04:56:22.145Z,3.21
2019-05-13T04:57:18.856Z,3.35
2019-05-13T04:58:18.779Z,3.28
2019-05-13T04:59:18.685Z,3.39
2019-05-13T05:00:18.599Z,3.41
2019-05-13T05:01:18.511Z,3.48
2019-05-13T05:02:18.424Z,3.61
2019-05-13T05:03:23.097Z,3.62
2019-05-13T05:04:24.036Z,3.59
2019-05-13T05:05:18.168Z,3.74
2019-05-13T05:06:18.083Z,3.77
2019-05-13T05:07:17.999Z,3.83
2019-05-13T05:08:17.910Z,3.84
2019-05-13T05:09:17.825Z,3.90
2019-05-13T05:10:30.349Z,3.97
2019-05-13T05:11:17.658Z,4.04
2019-05-13T05:12:17.571Z,4.10
2019-05-13T05:13:17.483Z,4.07
2019-05-13T05:14:17.399Z,4.07
2019-05-13T05:15:17.312Z,4.04
2019-05-13T05:16:17.228Z,4.15
2019-05-13T05:17:17.143Z,4.22
2019-05-13T05:18:17.065Z,4.16
2019-05-13T05:19:16.971Z,4.23
2019-05-13T05:20:16.890Z,4.28
2019-05-13T05:21:16.800Z,4.26
2019-05-13T05:22:16.716Z,4.34
2019-05-13T05:23:16.631Z,4.26
2019-05-13T05:24:16.545Z,4.34
2019-05-13T05:25:16.462Z,4.41
2019-05-13T05:26:16.377Z,4.47
2019-05-13T05:27:16.292Z,4.55
2019-05-13T05:28:16.206Z,4.58
2019-05-13T05:29:16.121Z,4.65
2019-05-13T05:30:16.038Z,4.65
2019-05-13T05:31:15.953Z,4.66
2019-05-13T05:32:15.867Z,4.79
2019-05-13T05:33:15.785Z,4.84
2019-05-13T05:34:15.700Z,4.80
2019-05-13T05:35:15.614Z,4.98
2019-05-13T05:36:15.531Z,4.95
2019-05-13T05:37:15.445Z,4.96
2019-05-13T05:38:15.360Z,5.11
2019-05-13T05:39:15.275Z,5.02
2019-05-13T05:40:28.079Z,5.18
2019-05-13T05:41:15.108Z,5.23
2019-05-13T05:42:15.024Z,5.29
2019-05-13T05:43:14.937Z,5.34
2019-05-13T05:44:14.854Z,5.36
2019-05-13T05:45:14.771Z,5.38
2019-05-13T05:46:14.689Z,5.50
2019-05-13T05:47:14.601Z,5.53
2019-05-13T05:48:14.517Z,5.49
2019-05-13T05:49:14.435Z,5.53
2019-05-13T05:50:14.353Z,5.56
2019-05-13T05:51:14.267Z,5.65
2019-05-13T05:52:14.183Z,5.72
2019-05-13T05:53:14.112Z,5.70
2019-05-13T05:54:14.954Z,5.75
2019-05-13T05:55:13.933Z,5.83
2019-05-13T05:56:13.848Z,5.75
2019-05-13T05:57:13.763Z,5.89
2019-05-13T05:58:13.680Z,5.92
2019-05-13T05:59:13.606Z,5.95
2019-05-13T06:00:13.513Z,5.96
2019-05-13T06:01:13.430Z,5.99
2019-05-13T06:02:13.351Z,6.03
2019-05-13T06:03:13.999Z,6.04
2019-05-13T06:04:13.180Z,6.07
2019-05-13T06:05:13.096Z,6.22
2019-05-13T06:06:13.058Z,6.29
2019-05-13T06:07:12.928Z,6.37
2019-05-13T06:08:12.845Z,6.37
2019-05-13T06:09:12.766Z,6.48
2019-05-13T06:10:12.678Z,6.50
2019-05-13T06:11:12.593Z,6.47
2019-05-13T06:12:12.515Z,6.47
2019-05-13T06:13:12.427Z,6.55
2019-05-13T06:14:12.344Z,6.66
2019-05-13T06:15:12.467Z,6.66
2019-05-13T06:16:12.389Z,6.69
2019-05-13T06:17:12.096Z,6.76
2019-05-13T06:18:12.011Z,6.70
2019-05-13T06:19:12.233Z,6.72
2019-05-13T06:20:13.463Z,6.75
2019-05-13T06:21:12.304Z,6.86
2019-05-13T06:22:12.294Z,6.88
2019-05-13T06:23:11.654Z,6.99
2019-05-13T06:24:11.823Z,7.13
2019-05-13T06:25:14.508Z,7.17
2019-05-13T06:26:12.583Z,7.26
2019-05-13T06:27:11.861Z,7.19
2019-05-13T06:28:12.395Z,7.24
2019-05-13T06:29:11.771Z,7.34
2019-05-13T06:30:12.568Z,7.26
2019-05-13T06:31:12.364Z,7.30
2019-05-13T06:32:19.186Z,7.37
2019-05-13T06:33:12.012Z,7.39
2019-05-13T06:34:12.642Z,7.49
2019-05-13T06:35:11.494Z,7.49
2019-05-13T06:37:11.469Z,7.41
2019-05-13T06:38:11.885Z,7.45
2019-05-13T06:39:12.406Z,7.53
2019-05-13T06:40:12.387Z,7.60
2019-05-13T06:41:14.036Z,7.73
2019-05-13T06:42:11.635Z,7.73
2019-05-13T06:43:12.012Z,7.75
2019-05-13T06:44:12.203Z,7.75
2019-05-13T06:45:12.222Z,7.68
2019-05-13T06:46:12.236Z,7.57
2019-05-13T06:47:11.388Z,7.72
2019-05-13T06:48:11.773Z,7.72
2019-05-13T06:49:12.026Z,7.62
2019-05-13T06:50:11.627Z,7.75
2019-05-13T06:51:11.509Z,7.86
2019-05-13T06:52:09.213Z,7.94
2019-05-13T06:53:09.135Z,8.06
2019-05-13T06:54:11.296Z,8.21
2019-05-13T06:55:11.386Z,8.11
2019-05-13T06:56:08.892Z,8.29
2019-05-13T06:57:13.146Z,8.42
2019-05-13T06:58:11.256Z,8.44
2019-05-13T06:59:08.650Z,8.36
2019-05-13T07:00:08.572Z,8.48
2019-05-13T07:01:08.491Z,8.54
2019-05-13T07:02:08.412Z,8.62
2019-05-13T07:03:08.331Z,8.51
2019-05-13T07:04:08.252Z,8.68
2019-05-13T07:05:08.173Z,8.80
2019-05-13T07:06:08.096Z,8.85
2019-05-13T07:07:13.266Z,9.05
2019-05-13T07:08:07.937Z,9.16
2019-05-13T07:10:15.351Z,9.27
2019-05-13T07:11:21.690Z,9.29
2019-05-13T07:12:15.194Z,9.37
2019-05-13T07:14:57.515Z,9.38
2019-05-13T07:15:57.435Z,9.47
2019-05-13T07:16:57.356Z,9.46
2019-05-13T07:18:52.075Z,9.40
2019-05-13T07:20:49.606Z,9.45
2019-05-13T07:21:51.941Z,9.40
2019-05-13T07:22:49.447Z,9.42
2019-05-13T07:23:54.508Z,9.49
2019-05-13T07:24:51.750Z,9.61
2019-05-13T07:25:49.206Z,9.80
2019-05-13T07:26:49.126Z,10.00
2019-05-13T07:27:51.381Z,10.00
2019-05-13T07:28:48.967Z,10.15
2019-05-13T07:29:50.911Z,10.19
2019-05-13T07:30:48.804Z,10.16
2019-05-13T07:31:48.726Z,10.21
2019-05-13T07:32:48.649Z,10.34
2019-05-13T07:33:48.578Z,10.18
2019-05-13T07:34:48.483Z,10.18
2019-05-13T07:35:48.403Z,10.18
2019-05-13T07:36:48.324Z,10.18
2019-05-13T07:37:48.252Z,10.21
2019-05-13T07:38:48.164Z,10.23
2019-05-13T07:39:48.084Z,10.23
2019-05-13T07:40:48.003Z,10.40
2019-05-13T07:41:47.923Z,10.33
2019-05-13T07:42:47.841Z,10.25
2019-05-13T07:43:47.762Z,10.22
2019-05-13T07:44:47.686Z,10.34
2019-05-13T07:45:47.602Z,10.49
2019-05-13T07:46:47.521Z,10.55
2019-05-13T07:47:47.444Z,10.49
2019-05-13T07:48:47.361Z,10.71
2019-05-13T07:49:47.280Z,10.55
2019-05-13T07:50:56.733Z,10.59
2019-05-13T07:51:47.130Z,10.67
2019-05-13T07:52:47.040Z,10.69
2019-05-13T07:53:46.959Z,10.91
2019-05-13T07:54:46.878Z,10.98
2019-05-13T07:55:46.798Z,10.96
2019-05-13T07:56:46.719Z,11.18
2019-05-13T07:57:46.657Z,11.31
2019-05-13T07:58:46.559Z,11.29
2019-05-13T07:59:46.476Z,11.32
2019-05-13T08:00:46.398Z,11.31
2019-05-13T08:01:46.338Z,11.42
2019-05-13T08:02:46.236Z,11.49
2019-05-13T08:03:46.157Z,11.46
2019-05-13T08:04:49.233Z,11.59
2019-05-13T08:05:45.997Z,11.54
2019-05-13T08:06:45.917Z,11.28
2019-05-13T08:07:45.836Z,11.29
2019-05-13T08:08:45.761Z,11.32
2019-05-13T08:09:45.680Z,11.34
2019-05-13T08:10:45.598Z,11.34
2019-05-13T08:12:04.465Z,11.31
2019-05-13T08:12:45.442Z,11.34
2019-05-13T08:13:45.392Z,11.36
2019-05-13T08:14:45.281Z,11.32
2019-05-13T08:15:45.200Z,11.36
2019-05-13T08:16:45.207Z,11.51
2019-05-13T08:17:47.742Z,11.67
2019-05-13T08:18:44.959Z,11.67
2019-05-13T08:19:44.886Z,11.67
2019-05-13T08:20:44.804Z,11.64
2019-05-13T08:21:44.723Z,11.71
2019-05-13T08:22:44.642Z,11.61
2019-05-13T08:23:44.561Z,11.71
2019-05-13T08:24:44.481Z,11.81
2019-05-13T08:25:44.403Z,11.79
2019-05-13T08:26:49.764Z,11.79
2019-05-13T08:27:44.242Z,11.93
2019-05-13T08:28:57.324Z,11.95
2019-05-13T08:29:44.087Z,11.75
2019-05-13T08:30:44.007Z,11.86
2019-05-13T08:31:43.925Z,11.87
2019-05-13T08:32:43.846Z,11.93
2019-05-13T08:33:43.768Z,12.13
2019-05-13T08:34:43.686Z,12.21
2019-05-13T08:35:47.182Z,12.36
2019-05-13T08:36:43.590Z,12.26
2019-05-13T08:37:43.450Z,12.26
2019-05-13T08:38:43.786Z,12.45
2019-05-13T08:39:43.422Z,12.34
2019-05-13T08:40:43.213Z,12.46
2019-05-13T08:41:43.133Z,12.59
2019-05-13T08:42:43.053Z,12.66
2019-05-13T08:44:42.893Z,12.56
2019-05-13T08:45:42.816Z,12.55
2019-05-13T08:46:42.738Z,12.73
2019-05-13T08:48:25.141Z,12.49
2019-05-13T08:49:25.062Z,12.45
2019-05-13T08:50:24.995Z,12.48
2019-05-13T08:51:31.144Z,12.55
2019-05-13T08:52:24.828Z,12.77
2019-05-13T08:53:24.749Z,12.77
2019-05-13T08:54:24.673Z,12.99
2019-05-13T08:55:24.621Z,13.02
2019-05-13T08:56:24.516Z,12.96
2019-05-13T08:57:25.451Z,13.04
2019-05-13T08:58:24.362Z,12.94
2019-05-13T08:59:24.284Z,12.91
2019-05-13T09:00:24.208Z,12.84
2019-05-13T09:02:26.673Z,12.81
2019-05-13T09:03:23.997Z,12.89
2019-05-13T09:04:23.898Z,12.96
2019-05-13T09:05:23.820Z,13.06
2019-05-13T09:06:23.745Z,13.02
2019-05-13T09:07:24.438Z,13.06
2019-05-13T09:08:23.590Z,13.04
2019-05-13T09:09:23.510Z,13.07
2019-05-13T09:10:23.436Z,13.06
2019-05-13T09:11:23.356Z,13.10
2019-05-13T09:12:32.343Z,13.15
2019-05-13T09:13:23.200Z,13.24
2019-05-13T09:14:23.120Z,13.10
2019-05-13T09:15:23.041Z,13.10
2019-05-13T09:16:22.963Z,13.27
2019-05-13T09:17:22.886Z,13.07
2019-05-13T09:18:23.048Z,13.14
2019-05-13T09:19:22.730Z,13.29
2019-05-13T09:20:22.649Z,13.33
2019-05-13T09:21:22.659Z,13.25
2019-05-13T09:22:22.495Z,13.41
2019-05-13T09:23:22.542Z,13.66
2019-05-13T09:24:29.009Z,13.65
2019-05-13T09:25:22.262Z,13.68
2019-05-13T09:26:22.710Z,13.62
2019-05-13T09:27:22.639Z,13.55
2019-05-13T09:28:22.187Z,13.61
2019-05-13T09:29:22.664Z,13.77
2019-05-13T09:30:22.355Z,13.81
2019-05-13T09:31:22.191Z,13.94
2019-05-13T09:32:21.807Z,13.98
2019-05-13T09:33:22.056Z,13.96
2019-05-13T09:34:22.116Z,13.76
2019-05-13T09:35:22.197Z,13.52
2019-05-13T09:36:21.874Z,13.25
2019-05-13T09:37:22.467Z,13.09
2019-05-13T09:38:22.135Z,13.17
2019-05-13T09:39:21.729Z,13.24
2019-05-13T09:40:22.376Z,13.41
2019-05-13T09:41:21.517Z,13.63
2019-05-13T09:42:21.770Z,13.61
2019-05-13T09:43:22.147Z,13.73
2019-05-13T09:44:21.810Z,13.77
2019-05-13T09:45:21.539Z,13.76
2019-05-13T09:46:22.605Z,13.81
2019-05-13T09:47:21.713Z,13.86
2019-05-13T09:48:22.486Z,13.98
2019-05-13T09:49:23.540Z,13.86
2019-05-13T09:50:31.512Z,13.96
2019-05-13T09:51:21.615Z,13.99
2019-05-13T09:52:22.514Z,14.13
2019-05-13T09:53:22.283Z,14.01
2019-05-13T09:54:22.225Z,14.11
2019-05-13T09:55:26.586Z,14.14
2019-05-13T09:56:22.222Z,14.17
2019-05-13T09:57:22.043Z,14.20
2019-05-13T09:58:22.011Z,14.28
2019-05-13T09:59:21.956Z,14.24
2019-05-13T10:00:21.778Z,14.17
2019-05-13T10:01:19.459Z,14.23
2019-05-13T10:02:21.414Z,14.21
2019-05-13T10:03:23.246Z,14.11
2019-05-13T10:04:19.218Z,14.13
2019-05-13T10:05:19.141Z,14.20
2019-05-13T10:06:19.063Z,14.31
2019-05-13T10:07:18.985Z,14.20
2019-05-13T10:08:21.636Z,14.13
2019-05-13T10:09:18.832Z,14.10
2019-05-13T10:10:18.753Z,13.91
2019-05-13T10:11:18.675Z,14.10
2019-05-13T10:12:18.598Z,14.19
2019-05-13T10:13:18.518Z,14.03
2019-05-13T10:14:18.442Z,14.03
2019-05-13T10:15:18.364Z,14.09
2019-05-13T10:16:18.285Z,13.96
2019-05-13T10:17:18.208Z,14.20
2019-05-13T10:18:18.132Z,14.36
2019-05-13T10:19:18.051Z,14.57
2019-05-13T10:20:17.974Z,14.46
2019-05-13T10:21:17.896Z,14.41
2019-05-13T10:22:43.523Z,14.50
2019-05-13T10:23:17.741Z,14.50
2019-05-13T10:24:17.662Z,14.42
2019-05-13T10:25:17.639Z,14.53
2019-05-13T10:28:07.538Z,14.57
2019-05-13T10:31:04.688Z,14.38
2019-05-13T10:35:37.220Z,14.50
2019-05-13T10:37:29.414Z,14.60
2019-05-13T10:44:53.136Z,14.95
2019-05-13T10:45:53.060Z,14.84
2019-05-13T10:46:53.186Z,14.98
2019-05-13T10:47:52.908Z,15.15
2019-05-13T10:48:52.949Z,15.28
2019-05-13T10:50:45.346Z,15.34
2019-05-13T10:51:45.170Z,15.27
2019-05-13T10:53:32.582Z,15.12
2019-05-13T10:54:32.871Z,15.13
2019-05-13T10:55:32.628Z,14.98
2019-05-13T10:56:32.929Z,15.08
2019-05-13T10:57:32.280Z,15.10
2019-05-13T10:58:32.205Z,15.39
2019-05-13T10:59:32.130Z,15.39
2019-05-13T11:00:32.165Z,15.48
2019-05-13T11:01:32.727Z,15.45
2019-05-13T11:02:32.876Z,15.45
2019-05-13T11:03:32.870Z,15.66
2019-05-13T11:04:32.742Z,15.68
2019-05-13T11:05:32.651Z,15.68
2019-05-13T11:06:32.535Z,15.81
2019-05-13T11:07:32.184Z,15.89
2019-05-13T11:08:33.171Z,15.94
2019-05-13T11:09:32.425Z,15.79
2019-05-13T11:10:32.579Z,15.82
2019-05-13T11:11:33.040Z,15.88
2019-05-13T11:12:33.372Z,15.78
2019-05-13T11:13:50.706Z,15.55
2019-05-13T11:14:32.290Z,15.39
2019-05-13T11:15:32.851Z,15.59
2019-05-13T11:16:30.864Z,15.85
2019-05-13T11:17:32.963Z,16.01
2019-05-13T11:18:30.717Z,16.33
2019-05-13T11:21:56.291Z,16.59
2019-05-13T11:22:56.216Z,16.55
2019-05-13T11:23:56.147Z,16.66
2019-05-13T11:24:56.071Z,16.75
2019-05-13T11:25:55.998Z,16.98
2019-05-13T11:26:55.922Z,17.08
2019-05-13T11:28:55.775Z,17.17
2019-05-13T11:29:55.702Z,16.93
2019-05-13T11:30:59.678Z,17.13
2019-05-13T11:32:43.084Z,17.28
2019-05-13T11:33:42.976Z,17.51
2019-05-13T11:34:42.908Z,17.69
2019-05-13T11:35:42.829Z,17.74
2019-05-13T11:36:43.457Z,18.10
2019-05-13T11:37:43.503Z,18.35
2019-05-13T11:38:43.341Z,18.59
2019-05-13T11:39:42.994Z,19.15
2019-05-13T11:40:42.473Z,19.21
2019-05-13T11:41:42.809Z,19.20
2019-05-13T11:42:42.375Z,19.50
2019-05-13T11:43:44.872Z,19.54
2019-05-13T11:44:43.006Z,19.33
2019-05-13T11:45:42.224Z,19.25
2019-05-13T11:46:42.886Z,19.72
2019-05-13T11:47:41.966Z,19.82
2019-05-13T11:48:42.750Z,19.97
2019-05-13T11:52:14.325Z,20.82
2019-05-13T11:53:31.511Z,20.56
2019-05-13T11:56:34.209Z,20.00
2019-05-13T11:57:36.762Z,20.59
2019-05-13T11:58:34.075Z,20.65
2019-05-13T11:59:34.010Z,21.29
2019-05-13T12:00:33.944Z,21.26
2019-05-13T12:01:33.886Z,21.23
2019-05-13T12:02:33.814Z,21.51
2019-05-13T12:05:16.277Z,20.91
2019-05-13T12:06:16.113Z,21.27
2019-05-13T12:07:16.050Z,21.20
2019-05-13T12:08:15.985Z,20.84
2019-05-13T12:09:15.922Z,21.11
2019-05-13T12:10:15.862Z,20.40
2019-05-13T12:11:15.796Z,20.66
2019-05-13T12:12:15.730Z,21.38
2019-05-13T12:13:15.669Z,21.94
2019-05-13T12:14:39.312Z,22.37
2019-05-13T12:15:27.022Z,22.38
2019-05-13T12:16:15.478Z,22.90
2019-05-13T12:17:15.418Z,23.07
2019-05-13T12:18:15.357Z,23.05
2019-05-13T12:20:53.627Z,22.17
2019-05-13T12:21:54.033Z,22.49
2019-05-13T12:22:52.030Z,22.60
2019-05-13T12:23:52.775Z,21.84
2019-05-13T12:24:52.076Z,22.13
2019-05-13T12:25:52.571Z,22.35
2019-05-13T12:26:53.211Z,22.34
2019-05-13T12:27:51.945Z,22.52
2019-05-13T12:28:53.757Z,22.62
2019-05-13T12:29:52.759Z,22.81
2019-05-13T12:30:52.799Z,22.74
2019-05-13T12:31:52.599Z,22.65
2019-05-13T12:32:51.867Z,21.75
2019-05-13T12:33:52.318Z,21.05
2019-05-13T12:34:52.382Z,21.78
2019-05-13T12:35:53.039Z,21.91
2019-05-13T12:36:49.378Z,21.81
2019-05-13T12:37:53.020Z,22.35
2019-05-13T12:38:52.920Z,22.56
2019-05-13T12:39:49.626Z,23.08
2019-05-13T12:40:52.463Z,23.12
2019-05-13T12:41:49.074Z,22.77
2019-05-13T12:42:49.016Z,22.39
2019-05-13T12:43:48.954Z,21.46
2019-05-13T12:45:03.767Z,21.21
2019-05-13T12:45:48.835Z,21.09
2019-05-13T12:46:50.465Z,21.49
2019-05-13T12:47:48.713Z,21.31
2019-05-13T12:48:48.650Z,21.09
2019-05-13T12:49:48.590Z,21.53
2019-05-13T12:50:48.529Z,21.23
2019-05-13T12:51:48.468Z,21.53
2019-05-13T12:52:48.406Z,22.10
2019-05-13T12:53:48.348Z,21.97
2019-05-13T12:54:48.285Z,22.15
2019-05-13T12:55:52.766Z,21.59
2019-05-13T12:56:48.162Z,21.85
2019-05-13T12:57:48.104Z,21.66
2019-05-13T12:58:48.048Z,21.48
2019-05-13T12:59:47.981Z,21.78
2019-05-13T13:00:47.919Z,22.65
2019-05-13T13:01:47.856Z,22.75
2019-05-13T13:02:51.599Z,22.07
2019-05-13T13:03:47.734Z,21.79
2019-05-13T13:05:09.183Z,22.00
2019-05-13T13:05:47.610Z,21.46
2019-05-13T13:06:47.550Z,21.74
2019-05-13T13:08:13.356Z,22.12
2019-05-13T13:08:49.314Z,21.95
2019-05-13T13:09:47.364Z,22.37
2019-05-13T13:10:47.304Z,22.46
2019-05-13T13:11:47.344Z,22.97
2019-05-13T13:12:47.179Z,23.71
2019-05-13T13:13:59.694Z,23.79
2019-05-13T13:14:47.063Z,23.26
2019-05-13T13:15:48.766Z,22.62
2019-05-13T13:16:46.936Z,22.75
2019-05-13T13:17:46.878Z,23.12
2019-05-13T13:18:46.816Z,23.14
2019-05-13T13:19:46.757Z,23.05
2019-05-13T13:20:46.692Z,23.31
2019-05-13T13:21:46.636Z,23.49
2019-05-13T13:22:46.572Z,23.26
2019-05-13T13:23:46.512Z,22.60
2019-05-13T13:24:51.545Z,23.08
2019-05-13T13:25:52.611Z,23.42
2019-05-13T13:26:46.330Z,23.00
2019-05-13T13:28:09.069Z,22.72
2019-05-13T13:28:46.209Z,22.24
2019-05-13T13:29:46.148Z,22.13
2019-05-13T13:30:46.088Z,22.28
2019-05-13T13:31:46.030Z,22.50
2019-05-13T13:32:45.969Z,22.49
2019-05-13T13:33:45.942Z,22.38
2019-05-13T13:34:45.876Z,22.24
2019-05-13T13:35:54.946Z,22.08
2019-05-13T13:36:46.650Z,22.19
2019-05-13T13:37:46.221Z,22.37
2019-05-13T13:38:45.604Z,22.47
2019-05-13T13:39:45.542Z,22.19
2019-05-13T13:40:45.995Z,21.97
2019-05-13T13:41:45.420Z,21.92
2019-05-13T13:42:45.362Z,22.12